sensor_id;sensor_type;location;lat;lon;timestamp;pressure;altitude;pressure_sealevel;temperature;humidity
27729;BME280;15126;42.186;24.340;2022-08-01T00:01:31;98981.44;;;23.94;56.08
27729;BME280;15126;42.186;24.340;2022-08-01T00:03:59;98981.41;;;23.99;55.47
27729;BME280;15126;42.186;24.340;2022-08-01T00:06:27;98979.56;;;24.02;56.18
27729;BME280;15126;42.186;24.340;2022-08-01T00:08:53;98988.59;;;24.06;54.66
27729;BME280;15126;42.186;24.340;2022-08-01T00:11:21;98983.94;;;24.03;55.21
27729;BME280;15126;42.186;24.340;2022-08-01T00:13:48;98982.78;;;23.87;56.03
27729;BME280;15126;42.186;24.340;2022-08-01T00:16:14;98986.50;;;23.77;55.76
27729;BME280;15126;42.186;24.340;2022-08-01T00:18:42;98976.34;;;23.81;56.80
27729;BME280;15126;42.186;24.340;2022-08-01T00:21:10;98977.00;;;23.63;56.48
27729;BME280;15126;42.186;24.340;2022-08-01T00:23:37;98980.56;;;23.75;56.51
27729;BME280;15126;42.186;24.340;2022-08-01T00:26:04;98984.47;;;23.72;56.87
27729;BME280;15126;42.186;24.340;2022-08-01T00:28:30;98976.97;;;23.68;57.51
27729;BME280;15126;42.186;24.340;2022-08-01T00:30:57;98980.88;;;23.65;57.14
27729;BME280;15126;42.186;24.340;2022-08-01T00:33:24;98974.41;;;23.65;57.26
27729;BME280;15126;42.186;24.340;2022-08-01T00:35:51;98975.47;;;23.62;57.12
27729;BME280;15126;42.186;24.340;2022-08-01T00:38:20;98981.22;;;23.51;57.56
27729;BME280;15126;42.186;24.340;2022-08-01T00:40:46;98983.84;;;23.49;56.41
27729;BME280;15126;42.186;24.340;2022-08-01T00:43:14;98978.72;;;23.36;57.47
27729;BME280;15126;42.186;24.340;2022-08-01T00:45:41;98988.03;;;23.37;57.81
27729;BME280;15126;42.186;24.340;2022-08-01T00:48:08;98981.31;;;23.34;57.75
27729;BME280;15126;42.186;24.340;2022-08-01T00:50:35;98981.84;;;23.33;56.78
27729;BME280;15126;42.186;24.340;2022-08-01T00:53:02;98985.47;;;23.39;56.74
27729;BME280;15126;42.186;24.340;2022-08-01T00:55:31;98984.91;;;23.35;56.66
27729;BME280;15126;42.186;24.340;2022-08-01T00:57:58;98984.91;;;23.35;57.58
27729;BME280;15126;42.186;24.340;2022-08-01T01:00:26;98979.53;;;23.31;57.00
27729;BME280;15126;42.186;24.340;2022-08-01T01:02:52;98987.03;;;23.34;56.66
27729;BME280;15126;42.186;24.340;2022-08-01T01:05:19;98991.94;;;23.34;56.79
27729;BME280;15126;42.186;24.340;2022-08-01T01:07:52;98999.69;;;23.33;56.69
27729;BME280;15126;42.186;24.340;2022-08-01T01:10:22;98984.94;;;23.29;56.65
27729;BME280;15126;42.186;24.340;2022-08-01T01:12:56;98985.50;;;23.28;57.08
27729;BME280;15126;42.186;24.340;2022-08-01T01:15:30;98983.19;;;23.26;57.61
27729;BME280;15126;42.186;24.340;2022-08-01T01:18:03;98981.13;;;23.21;57.54
27729;BME280;15126;42.186;24.340;2022-08-01T01:20:35;98978.34;;;23.10;57.47
27729;BME280;15126;42.186;24.340;2022-08-01T01:23:12;98982.72;;;23.11;57.10
27729;BME280;15126;42.186;24.340;2022-08-01T01:26:01;98983.28;;;23.04;56.02
27729;BME280;15126;42.186;24.340;2022-08-01T01:28:39;98980.44;;;23.04;56.66
27729;BME280;15126;42.186;24.340;2022-08-01T01:31:10;98983.00;;;23.07;57.19
27729;BME280;15126;42.186;24.340;2022-08-01T01:33:39;98987.38;;;23.14;57.92
27729;BME280;15126;42.186;24.340;2022-08-01T01:36:09;98987.94;;;23.07;57.34
27729;BME280;15126;42.186;24.340;2022-08-01T01:38:39;98980.94;;;23.02;57.64
27729;BME280;15126;42.186;24.340;2022-08-01T01:41:09;98992.59;;;23.10;57.47
27729;BME280;15126;42.186;24.340;2022-08-01T01:43:39;98987.44;;;23.03;58.37
27729;BME280;15126;42.186;24.340;2022-08-01T01:46:09;98994.16;;;23.00;59.50
27729;BME280;15126;42.186;24.340;2022-08-01T01:48:36;98991.84;;;22.98;59.56
27729;BME280;15126;42.186;24.340;2022-08-01T01:51:05;98984.88;;;22.94;59.38
27729;BME280;15126;42.186;24.340;2022-08-01T01:53:34;98985.16;;;22.90;60.15
27729;BME280;15126;42.186;24.340;2022-08-01T01:56:02;98985.41;;;22.92;59.32
27729;BME280;15126;42.186;24.340;2022-08-01T01:58:32;98983.34;;;22.93;60.66
27729;BME280;15126;42.186;24.340;2022-08-01T02:01:01;98974.31;;;22.83;60.00
27729;BME280;15126;42.186;24.340;2022-08-01T02:03:31;98984.97;;;22.77;59.51
27729;BME280;15126;42.186;24.340;2022-08-01T02:06:02;98978.75;;;22.73;58.82
27729;BME280;15126;42.186;24.340;2022-08-01T02:08:32;98986.78;;;22.58;59.38
27729;BME280;15126;42.186;24.340;2022-08-01T02:11:01;98985.53;;;22.42;58.65
27729;BME280;15126;42.186;24.340;2022-08-01T02:13:46;98985.03;;;22.33;59.46
27729;BME280;15126;42.186;24.340;2022-08-01T02:16:15;98993.56;;;22.27;59.07
27729;BME280;15126;42.186;24.340;2022-08-01T02:18:45;98997.97;;;22.28;59.69
27729;BME280;15126;42.186;24.340;2022-08-01T02:21:15;98980.41;;;22.13;58.95
27729;BME280;15126;42.186;24.340;2022-08-01T02:23:45;98983.50;;;22.15;58.25
27729;BME280;15126;42.186;24.340;2022-08-01T02:26:14;98986.88;;;21.97;58.89
27729;BME280;15126;42.186;24.340;2022-08-01T02:28:46;98985.59;;;22.04;58.46
27729;BME280;15126;42.186;24.340;2022-08-01T02:31:17;98977.31;;;22.00;58.66
27729;BME280;15126;42.186;24.340;2022-08-01T02:33:52;98992.28;;;22.17;58.66
27729;BME280;15126;42.186;24.340;2022-08-01T02:36:21;98979.38;;;22.16;58.37
27729;BME280;15126;42.186;24.340;2022-08-01T02:38:50;98993.56;;;22.16;58.31
27729;BME280;15126;42.186;24.340;2022-08-01T02:41:20;98981.66;;;22.23;58.99
27729;BME280;15126;42.186;24.340;2022-08-01T02:43:50;98992.28;;;22.28;57.59
27729;BME280;15126;42.186;24.340;2022-08-01T02:46:22;98990.22;;;22.12;57.73
27729;BME280;15126;42.186;24.340;2022-08-01T02:48:53;98982.22;;;22.16;58.15
27729;BME280;15126;42.186;24.340;2022-08-01T02:51:23;98982.47;;;21.96;58.47
27729;BME280;15126;42.186;24.340;2022-08-01T02:53:52;98985.31;;;22.02;58.86
27729;BME280;15126;42.186;24.340;2022-08-01T02:56:21;98977.31;;;22.00;57.80
27729;BME280;15126;42.186;24.340;2022-08-01T02:58:49;98983.50;;;22.04;58.51
27729;BME280;15126;42.186;24.340;2022-08-01T03:01:18;98977.31;;;22.00;58.53
27729;BME280;15126;42.186;24.340;2022-08-01T03:03:46;98976.53;;;22.05;58.86
27729;BME280;15126;42.186;24.340;2022-08-01T03:06:15;98976.78;;;22.07;59.23
27729;BME280;15126;42.186;24.340;2022-08-01T03:08:43;98973.69;;;22.11;59.56
27729;BME280;15126;42.186;24.340;2022-08-01T03:11:12;98972.91;;;22.10;58.84
27729;BME280;15126;42.186;24.340;2022-08-01T03:13:41;98976.78;;;21.90;57.66
27729;BME280;15126;42.186;24.340;2022-08-01T03:16:10;98974.22;;;21.98;58.31
27729;BME280;15126;42.186;24.340;2022-08-01T03:18:39;98968.03;;;22.00;59.29
27729;BME280;15126;42.186;24.340;2022-08-01T03:21:09;98978.09;;;22.01;58.90
27729;BME280;15126;42.186;24.340;2022-08-01T03:23:39;98968.03;;;22.00;58.55
27729;BME280;15126;42.186;24.340;2022-08-01T03:26:07;98977.31;;;22.00;59.39
27729;BME280;15126;42.186;24.340;2022-08-01T03:28:35;98980.16;;;22.00;60.36
27729;BME280;15126;42.186;24.340;2022-08-01T03:31:04;98978.59;;;21.99;58.98
27729;BME280;15126;42.186;24.340;2022-08-01T03:33:31;98983.78;;;22.01;59.76
27729;BME280;15126;42.186;24.340;2022-08-01T03:36:00;98982.22;;;21.94;59.14
27729;BME280;15126;42.186;24.340;2022-08-01T03:38:30;98974.72;;;21.91;59.10
27729;BME280;15126;42.186;24.340;2022-08-01T03:41:09;98982.19;;;21.83;58.30
27729;BME280;15126;42.186;24.340;2022-08-01T03:43:38;98972.13;;;21.71;58.37
27729;BME280;15126;42.186;24.340;2022-08-01T03:46:10;98970.81;;;21.72;59.04
27729;BME280;15126;42.186;24.340;2022-08-01T03:48:43;98971.56;;;21.45;58.28
27729;BME280;15126;42.186;24.340;2022-08-01T03:51:13;98965.66;;;21.48;58.92
27729;BME280;15126;42.186;24.340;2022-08-01T03:53:42;98979.06;;;21.64;59.72
27729;BME280;15126;42.186;24.340;2022-08-01T03:56:16;98963.34;;;21.47;59.88
27729;BME280;15126;42.186;24.340;2022-08-01T03:58:45;98975.22;;;21.73;58.33
27729;BME280;15126;42.186;24.340;2022-08-01T04:01:12;98983.75;;;21.78;58.83
27729;BME280;15126;42.186;24.340;2022-08-01T04:03:40;98970.59;;;21.86;59.81
27729;BME280;15126;42.186;24.340;2022-08-01T04:06:07;98966.75;;;21.89;58.96
27729;BME280;15126;42.186;24.340;2022-08-01T04:08:36;98967.22;;;22.10;59.16
27729;BME280;15126;42.186;24.340;2022-08-01T04:11:03;98966.38;;;22.48;57.62
27729;BME280;15126;42.186;24.340;2022-08-01T04:13:31;98972.59;;;23.16;56.03
27729;BME280;15126;42.186;24.340;2022-08-01T04:15:59;98971.91;;;23.56;53.43
27729;BME280;15126;42.186;24.340;2022-08-01T04:18:26;98965.00;;;24.11;51.09
27729;BME280;15126;42.186;24.340;2022-08-01T04:20:53;98965.25;;;24.85;50.39
27729;BME280;15126;42.186;24.340;2022-08-01T04:23:23;98970.84;;;25.53;47.77
27729;BME280;15126;42.186;24.340;2022-08-01T04:25:52;98956.88;;;25.99;46.48
27729;BME280;15126;42.186;24.340;2022-08-01T04:28:20;98972.38;;;26.36;45.19
27729;BME280;15126;42.186;24.340;2022-08-01T04:30:52;98967.84;;;26.27;44.51
27729;BME280;15126;42.186;24.340;2022-08-01T04:33:21;98977.69;;;26.71;44.25
27729;BME280;15126;42.186;24.340;2022-08-01T04:35:50;98977.00;;;27.04;44.28
27729;BME280;15126;42.186;24.340;2022-08-01T04:38:22;98976.53;;;27.27;43.28
27729;BME280;15126;42.186;24.340;2022-08-01T04:40:54;98972.03;;;27.31;42.95
27729;BME280;15126;42.186;24.340;2022-08-01T04:43:21;98965.94;;;27.35;43.23
27729;BME280;15126;42.186;24.340;2022-08-01T04:45:50;98970.78;;;27.40;43.43
27729;BME280;15126;42.186;24.340;2022-08-01T04:48:18;98964.03;;;26.64;43.12
27729;BME280;15126;42.186;24.340;2022-08-01T04:50:45;98979.44;;;26.74;45.12
27729;BME280;15126;42.186;24.340;2022-08-01T04:53:13;98977.44;;;26.43;44.12
27729;BME280;15126;42.186;24.340;2022-08-01T04:55:42;98991.31;;;26.52;45.47
27729;BME280;15126;42.186;24.340;2022-08-01T04:58:09;98979.97;;;26.33;44.52
27729;BME280;15126;42.186;24.340;2022-08-01T05:00:36;98975.97;;;26.23;44.92
27729;BME280;15126;42.186;24.340;2022-08-01T05:03:04;98980.84;;;26.10;45.91
27729;BME280;15126;42.186;24.340;2022-08-01T05:05:31;98971.84;;;26.06;44.65
27729;BME280;15126;42.186;24.340;2022-08-01T05:07:59;98971.47;;;25.96;46.06
27729;BME280;15126;42.186;24.340;2022-08-01T05:10:26;98980.81;;;25.96;45.35
27729;BME280;15126;42.186;24.340;2022-08-01T05:12:53;98976.31;;;26.01;44.80
27729;BME280;15126;42.186;24.340;2022-08-01T05:15:20;98976.84;;;25.86;44.22
27729;BME280;15126;42.186;24.340;2022-08-01T05:17:47;98973.34;;;25.93;44.09
27729;BME280;15126;42.186;24.340;2022-08-01T05:20:15;98976.53;;;25.90;46.28
27729;BME280;15126;42.186;24.340;2022-08-01T05:22:42;98967.97;;;25.71;43.15
27729;BME280;15126;42.186;24.340;2022-08-01T05:25:09;98968.22;;;25.36;42.89
27729;BME280;15126;42.186;24.340;2022-08-01T05:27:36;98978.97;;;25.67;44.24
27729;BME280;15126;42.186;24.340;2022-08-01T05:30:06;98973.50;;;25.82;45.91
27729;BME280;15126;42.186;24.340;2022-08-01T05:32:33;98974.16;;;25.75;43.62
27729;BME280;15126;42.186;24.340;2022-08-01T05:35:00;98975.50;;;25.87;42.37
27729;BME280;15126;42.186;24.340;2022-08-01T05:37:29;98971.25;;;25.94;41.47
27729;BME280;15126;42.186;24.340;2022-08-01T05:39:55;98980.38;;;26.24;45.55
27729;BME280;15126;42.186;24.340;2022-08-01T05:42:22;98972.56;;;26.25;42.03
27729;BME280;15126;42.186;24.340;2022-08-01T05:44:49;98971.38;;;26.33;41.35
27729;BME280;15126;42.186;24.340;2022-08-01T05:47:16;98972.81;;;26.40;44.74
27729;BME280;15126;42.186;24.340;2022-08-01T05:49:43;98976.75;;;26.24;39.82
27729;BME280;15126;42.186;24.340;2022-08-01T05:52:10;98974.69;;;26.37;40.92
27729;BME280;15126;42.186;24.340;2022-08-01T05:54:38;98977.34;;;26.61;42.11
27729;BME280;15126;42.186;24.340;2022-08-01T05:57:05;98972.41;;;26.88;40.55
27729;BME280;15126;42.186;24.340;2022-08-01T05:59:32;98968.09;;;27.08;46.43
27729;BME280;15126;42.186;24.340;2022-08-01T06:01:59;98961.34;;;27.18;40.27
27729;BME280;15126;42.186;24.340;2022-08-01T06:04:25;98962.59;;;26.97;40.38
27729;BME280;15126;42.186;24.340;2022-08-01T06:06:52;98954.59;;;27.29;40.33
27729;BME280;15126;42.186;24.340;2022-08-01T06:09:19;98952.25;;;27.54;43.56
27729;BME280;15126;42.186;24.340;2022-08-01T06:11:47;98957.66;;;27.78;40.81
27729;BME280;15126;42.186;24.340;2022-08-01T06:14:14;98949.63;;;27.97;40.24
27729;BME280;15126;42.186;24.340;2022-08-01T06:16:41;98957.38;;;27.89;38.49
27729;BME280;15126;42.186;24.340;2022-08-01T06:19:08;98946.84;;;27.84;38.64
27729;BME280;15126;42.186;24.340;2022-08-01T06:21:34;98944.94;;;27.87;38.13
27729;BME280;15126;42.186;24.340;2022-08-01T06:24:01;98948.44;;;27.72;39.06
27729;BME280;15126;42.186;24.340;2022-08-01T06:26:28;98947.16;;;27.81;39.48
27729;BME280;15126;42.186;24.340;2022-08-01T06:28:57;98948.09;;;27.96;39.79
27729;BME280;15126;42.186;24.340;2022-08-01T06:31:24;98936.53;;;27.89;38.53
27729;BME280;15126;42.186;24.340;2022-08-01T06:33:51;98950.78;;;28.15;39.36
27729;BME280;15126;42.186;24.340;2022-08-01T06:36:18;98935.31;;;28.18;41.02
27729;BME280;15126;42.186;24.340;2022-08-01T06:38:45;98932.75;;;28.35;38.79
27729;BME280;15126;42.186;24.340;2022-08-01T06:41:12;98926.91;;;28.20;36.15
27729;BME280;15126;42.186;24.340;2022-08-01T06:43:38;98935.47;;;28.41;36.62
27729;BME280;15126;42.186;24.340;2022-08-01T06:46:07;98925.00;;;28.71;38.75
27729;BME280;15126;42.186;24.340;2022-08-01T06:48:33;98922.56;;;28.83;35.51
27729;BME280;15126;42.186;24.340;2022-08-01T06:51:04;98928.22;;;28.68;36.53
27729;BME280;15126;42.186;24.340;2022-08-01T06:53:35;98926.56;;;28.80;36.38
27729;BME280;15126;42.186;24.340;2022-08-01T06:56:02;98912.41;;;28.25;34.56
27729;BME280;15126;42.186;24.340;2022-08-01T06:58:29;98921.28;;;28.35;35.26
27729;BME280;15126;42.186;24.340;2022-08-01T07:00:56;98912.34;;;28.46;35.30
27729;BME280;15126;42.186;24.340;2022-08-01T07:03:24;98907.44;;;28.54;35.57
27729;BME280;15126;42.186;24.340;2022-08-01T07:05:51;98919.28;;;28.79;35.85
27729;BME280;15126;42.186;24.340;2022-08-01T07:08:18;98910.00;;;29.01;37.08
27729;BME280;15126;42.186;24.340;2022-08-01T07:10:45;98914.13;;;29.21;34.92
27729;BME280;15126;42.186;24.340;2022-08-01T07:13:11;98925.16;;;29.09;33.00
27729;BME280;15126;42.186;24.340;2022-08-01T07:15:40;98925.06;;;28.86;35.25
27729;BME280;15126;42.186;24.340;2022-08-01T07:18:07;98903.81;;;28.89;33.74
27729;BME280;15126;42.186;24.340;2022-08-01T07:20:37;98909.25;;;28.65;34.62
27729;BME280;15126;42.186;24.340;2022-08-01T07:23:04;98908.19;;;28.75;34.81
27729;BME280;15126;42.186;24.340;2022-08-01T07:25:31;98911.69;;;28.89;34.54
27729;BME280;15126;42.186;24.340;2022-08-01T07:27:57;98889.16;;;29.08;33.62
27729;BME280;15126;42.186;24.340;2022-08-01T07:30:24;98904.50;;;29.11;34.83
27729;BME280;15126;42.186;24.340;2022-08-01T07:32:52;98897.22;;;29.10;33.93
27729;BME280;15126;42.186;24.340;2022-08-01T07:35:18;98904.22;;;28.86;33.80
27729;BME280;15126;42.186;24.340;2022-08-01T07:37:46;98894.84;;;28.93;34.00
27729;BME280;15126;42.186;24.340;2022-08-01T07:40:14;98896.09;;;29.13;36.58
27729;BME280;15126;42.186;24.340;2022-08-01T07:42:41;98900.41;;;29.34;35.07
27729;BME280;15126;42.186;24.340;2022-08-01T07:45:09;98902.34;;;29.55;35.84
27729;BME280;15126;42.186;24.340;2022-08-01T07:47:37;98902.38;;;29.70;31.88
27729;BME280;15126;42.186;24.340;2022-08-01T07:50:05;98883.22;;;29.65;32.12
27729;BME280;15126;42.186;24.340;2022-08-01T07:52:32;98904.16;;;29.80;31.75
27729;BME280;15126;42.186;24.340;2022-08-01T07:55:00;98895.69;;;29.90;34.28
27729;BME280;15126;42.186;24.340;2022-08-01T07:57:27;98886.72;;;30.08;33.59
27729;BME280;15126;42.186;24.340;2022-08-01T07:59:54;98887.84;;;30.13;31.23
27729;BME280;15126;42.186;24.340;2022-08-01T08:02:21;98886.47;;;30.14;31.72
27729;BME280;15126;42.186;24.340;2022-08-01T08:04:48;98892.03;;;30.20;31.36
27729;BME280;15126;42.186;24.340;2022-08-01T08:07:15;98888.22;;;30.40;35.02
27729;BME280;15126;42.186;24.340;2022-08-01T08:09:42;98893.94;;;30.47;32.81
27729;BME280;15126;42.186;24.340;2022-08-01T08:12:10;98894.91;;;30.57;31.81
27729;BME280;15126;42.186;24.340;2022-08-01T08:14:37;98898.72;;;30.67;33.26
27729;BME280;15126;42.186;24.340;2022-08-01T08:17:05;98894.47;;;30.76;33.13
27729;BME280;15126;42.186;24.340;2022-08-01T08:19:32;98887.25;;;30.07;31.90
27729;BME280;15126;42.186;24.340;2022-08-01T08:21:59;98874.78;;;29.82;31.43
27729;BME280;15126;42.186;24.340;2022-08-01T08:24:26;98871.72;;;30.10;32.51
27729;BME280;15126;42.186;24.340;2022-08-01T08:26:54;98878.28;;;30.03;31.31
27729;BME280;15126;42.186;24.340;2022-08-01T08:29:25;98872.09;;;30.22;31.26
27729;BME280;15126;42.186;24.340;2022-08-01T08:31:53;98875.91;;;30.47;32.66
27729;BME280;15126;42.186;24.340;2022-08-01T08:34:20;98868.25;;;30.34;31.36
27729;BME280;15126;42.186;24.340;2022-08-01T08:36:47;98870.34;;;30.56;30.75
27729;BME280;15126;42.186;24.340;2022-08-01T08:39:14;98875.06;;;30.77;36.15
27729;BME280;15126;42.186;24.340;2022-08-01T08:41:41;98865.41;;;30.19;32.71
27729;BME280;15126;42.186;24.340;2022-08-01T08:44:09;98867.88;;;30.38;34.79
27729;BME280;15126;42.186;24.340;2022-08-01T08:46:41;98873.78;;;30.55;33.80
27729;BME280;15126;42.186;24.340;2022-08-01T08:49:10;98865.16;;;30.47;32.63
27729;BME280;15126;42.186;24.340;2022-08-01T08:51:39;98876.03;;;30.72;33.25
27729;BME280;15126;42.186;24.340;2022-08-01T08:54:06;98876.59;;;30.93;35.24
27729;BME280;15126;42.186;24.340;2022-08-01T08:56:34;98882.22;;;31.15;30.61
27729;BME280;15126;42.186;24.340;2022-08-01T08:59:04;98856.25;;;31.23;30.38
27729;BME280;15126;42.186;24.340;2022-08-01T09:01:32;98855.72;;;31.17;31.84
27729;BME280;15126;42.186;24.340;2022-08-01T09:04:02;98852.56;;;31.30;30.91
27729;BME280;15126;42.186;24.340;2022-08-01T09:06:29;98851.66;;;31.20;31.93
27729;BME280;15126;42.186;24.340;2022-08-01T09:08:56;98852.91;;;31.34;32.19
27729;BME280;15126;42.186;24.340;2022-08-01T09:11:23;98860.72;;;31.49;33.16
27729;BME280;15126;42.186;24.340;2022-08-01T09:14:04;98845.38;;;31.46;30.96
27729;BME280;15126;42.186;24.340;2022-08-01T09:16:32;98851.56;;;31.67;31.41
27729;BME280;15126;42.186;24.340;2022-08-01T09:19:15;98845.63;;;31.65;32.77
27729;BME280;15126;42.186;24.340;2022-08-01T09:21:56;98845.69;;;31.83;33.30
27729;BME280;15126;42.186;24.340;2022-08-01T09:24:25;98846.13;;;31.96;32.15
27729;BME280;15126;42.186;24.340;2022-08-01T09:26:52;98854.75;;;32.04;30.58
27729;BME280;15126;42.186;24.340;2022-08-01T09:29:22;98843.50;;;31.91;32.54
27729;BME280;15126;42.186;24.340;2022-08-01T09:31:49;98833.69;;;31.86;33.50
27729;BME280;15126;42.186;24.340;2022-08-01T09:34:26;98835.34;;;31.72;30.48
27729;BME280;15126;42.186;24.340;2022-08-01T09:36:54;98850.47;;;31.80;34.12
27729;BME280;15126;42.186;24.340;2022-08-01T09:39:23;98849.22;;;31.73;31.29
27729;BME280;15126;42.186;24.340;2022-08-01T09:41:50;98837.50;;;31.71;31.86
27729;BME280;15126;42.186;24.340;2022-08-01T09:44:18;98820.94;;;31.72;32.28
27729;BME280;15126;42.186;24.340;2022-08-01T09:46:49;98801.28;;;31.53;30.84
27729;BME280;15126;42.186;24.340;2022-08-01T09:49:28;98834.19;;;31.50;30.96
27729;BME280;15126;42.186;24.340;2022-08-01T09:51:56;98827.44;;;31.55;29.80
27729;BME280;15126;42.186;24.340;2022-08-01T09:54:32;98830.66;;;31.59;30.34
27729;BME280;15126;42.186;24.340;2022-08-01T09:57:14;98825.50;;;31.58;30.50
27729;BME280;15126;42.186;24.340;2022-08-01T09:59:42;98819.50;;;31.63;32.43
27729;BME280;15126;42.186;24.340;2022-08-01T10:02:10;98821.69;;;31.72;31.39
27729;BME280;15126;42.186;24.340;2022-08-01T10:04:50;98821.38;;;31.86;32.90
27729;BME280;15126;42.186;24.340;2022-08-01T10:07:18;98835.66;;;31.83;30.51
27729;BME280;15126;42.186;24.340;2022-08-01T10:09:46;98817.78;;;31.85;31.10
27729;BME280;15126;42.186;24.340;2022-08-01T10:12:14;98813.19;;;31.82;31.20
27729;BME280;15126;42.186;24.340;2022-08-01T10:14:42;98828.09;;;31.88;32.62
27729;BME280;15126;42.186;24.340;2022-08-01T10:17:13;98818.25;;;31.74;30.61
27729;BME280;15126;42.186;24.340;2022-08-01T10:19:41;98818.06;;;31.72;29.21
27729;BME280;15126;42.186;24.340;2022-08-01T10:22:11;98815.69;;;31.78;31.87
27729;BME280;15126;42.186;24.340;2022-08-01T10:24:43;98796.44;;;31.80;30.64
27729;BME280;15126;42.186;24.340;2022-08-01T10:27:10;98814.69;;;32.08;31.70
27729;BME280;15126;42.186;24.340;2022-08-01T10:29:42;98803.91;;;32.08;30.62
27729;BME280;15126;42.186;24.340;2022-08-01T10:32:09;98811.28;;;32.19;29.21
27729;BME280;15126;42.186;24.340;2022-08-01T10:34:37;98822.06;;;32.01;30.91
27729;BME280;15126;42.186;24.340;2022-08-01T10:37:05;98816.75;;;31.90;28.95
27729;BME280;15126;42.186;24.340;2022-08-01T10:39:33;98818.22;;;31.99;28.71
27729;BME280;15126;42.186;24.340;2022-08-01T10:42:01;98815.53;;;32.01;29.29
27729;BME280;15126;42.186;24.340;2022-08-01T10:44:29;98802.41;;;32.00;30.18
27729;BME280;15126;42.186;24.340;2022-08-01T10:47:01;98803.59;;;31.97;29.23
27729;BME280;15126;42.186;24.340;2022-08-01T10:49:34;98811.75;;;31.91;30.79
27729;BME280;15126;42.186;24.340;2022-08-01T10:52:04;98782.22;;;31.83;30.65
27729;BME280;15126;42.186;24.340;2022-08-01T10:54:39;98804.78;;;31.94;29.94
27729;BME280;15126;42.186;24.340;2022-08-01T10:57:07;98782.94;;;32.08;29.65
27729;BME280;15126;42.186;24.340;2022-08-01T10:59:47;98789.56;;;32.18;29.11
27729;BME280;15126;42.186;24.340;2022-08-01T11:02:25;98788.78;;;32.00;30.62
27729;BME280;15126;42.186;24.340;2022-08-01T11:08:36;98779.38;;;32.17;31.17
27729;BME280;15126;42.186;24.340;2022-08-01T11:11:06;98791.25;;;32.38;30.31
27729;BME280;15126;42.186;24.340;2022-08-01T11:14:02;98779.44;;;32.26;30.40
27729;BME280;15126;42.186;24.340;2022-08-01T11:16:34;98780.13;;;32.34;30.69
27729;BME280;15126;42.186;24.340;2022-08-01T11:19:01;98783.44;;;32.48;29.75
27729;BME280;15126;42.186;24.340;2022-08-01T11:21:58;98783.72;;;32.60;30.31
27729;BME280;15126;42.186;24.340;2022-08-01T11:24:54;98775.81;;;32.60;29.19
27729;BME280;15126;42.186;24.340;2022-08-01T11:27:26;98770.19;;;32.62;28.35
27729;BME280;15126;42.186;24.340;2022-08-01T11:30:24;98777.69;;;32.65;27.53
27729;BME280;15126;42.186;24.340;2022-08-01T11:32:56;98773.09;;;32.45;27.94
27729;BME280;15126;42.186;24.340;2022-08-01T11:35:23;98783.13;;;32.44;28.52
27729;BME280;15126;42.186;24.340;2022-08-01T11:37:52;98766.97;;;32.41;27.44
27729;BME280;15126;42.186;24.340;2022-08-01T11:40:22;98768.50;;;32.42;27.05
27729;BME280;15126;42.186;24.340;2022-08-01T11:43:17;98761.88;;;32.49;28.40
27729;BME280;15126;42.186;24.340;2022-08-01T11:45:48;98767.56;;;32.57;28.02
27729;BME280;15126;42.186;24.340;2022-08-01T11:48:19;98781.34;;;32.66;28.55
27729;BME280;15126;42.186;24.340;2022-08-01T11:50:46;98771.03;;;32.72;27.58
27729;BME280;15126;42.186;24.340;2022-08-01T11:53:13;98763.22;;;32.65;29.21
27729;BME280;15126;42.186;24.340;2022-08-01T11:55:45;98759.59;;;32.48;27.80
27729;BME280;15126;42.186;24.340;2022-08-01T11:58:16;98765.22;;;32.28;28.15
27729;BME280;15126;42.186;24.340;2022-08-01T12:00:50;98763.16;;;32.38;28.35
27729;BME280;15126;42.186;24.340;2022-08-01T12:03:23;98766.31;;;32.33;27.67
27729;BME280;15126;42.186;24.340;2022-08-01T12:05:52;98758.47;;;32.43;27.53
27729;BME280;15126;42.186;24.340;2022-08-01T12:08:25;98761.72;;;32.47;27.40
27729;BME280;15126;42.186;24.340;2022-08-01T12:10:52;98745.06;;;32.38;28.22
27729;BME280;15126;42.186;24.340;2022-08-01T12:13:21;98747.69;;;32.44;27.15
27729;BME280;15126;42.186;24.340;2022-08-01T12:15:48;98753.19;;;32.49;28.42
27729;BME280;15126;42.186;24.340;2022-08-01T12:18:15;98749.03;;;32.42;27.85
27729;BME280;15126;42.186;24.340;2022-08-01T12:20:44;98739.13;;;32.53;28.04
27729;BME280;15126;42.186;24.340;2022-08-01T12:23:13;98750.84;;;32.38;27.55
27729;BME280;15126;42.186;24.340;2022-08-01T12:25:41;98751.50;;;32.46;27.50
27729;BME280;15126;42.186;24.340;2022-08-01T12:28:10;98736.56;;;32.40;27.06
27729;BME280;15126;42.186;24.340;2022-08-01T12:30:40;98739.38;;;32.48;27.89
27729;BME280;15126;42.186;24.340;2022-08-01T12:33:08;98731.13;;;32.61;27.44
27729;BME280;15126;42.186;24.340;2022-08-01T12:35:36;98737.19;;;32.56;27.97
27729;BME280;15126;42.186;24.340;2022-08-01T12:38:06;98742.91;;;32.73;27.88
27729;BME280;15126;42.186;24.340;2022-08-01T12:40:34;98736.84;;;32.78;27.96
27729;BME280;15126;42.186;24.340;2022-08-01T12:43:03;98726.19;;;32.71;27.77
27729;BME280;15126;42.186;24.340;2022-08-01T12:45:33;98731.41;;;32.82;27.31
27729;BME280;15126;42.186;24.340;2022-08-01T12:48:05;98728.75;;;32.94;28.33
27729;BME280;15126;42.186;24.340;2022-08-01T12:50:34;98735.00;;;33.00;29.98
27729;BME280;15126;42.186;24.340;2022-08-01T12:53:03;98726.94;;;32.98;28.38
27729;BME280;15126;42.186;24.340;2022-08-01T12:55:30;98725.41;;;32.97;27.99
27729;BME280;15126;42.186;24.340;2022-08-01T12:58:04;98721.84;;;33.07;28.80
27729;BME280;15126;42.186;24.340;2022-08-01T13:00:31;98714.94;;;33.02;27.31
27729;BME280;15126;42.186;24.340;2022-08-01T13:03:04;98714.94;;;33.02;28.66
27729;BME280;15126;42.186;24.340;2022-08-01T13:05:42;98723.56;;;32.92;27.89